createdAt,value
2022-08-07T00:02:37.155Z,36.06
2022-08-07T00:04:53.346Z,36.04
2022-08-07T00:07:19.733Z,36.00
2022-08-07T00:09:59.262Z,35.78
2022-08-07T00:12:33.857Z,35.86
2022-08-07T00:15:00.220Z,36.13
2022-08-07T00:17:26.788Z,35.91
2022-08-07T00:20:01.578Z,35.88
2022-08-07T00:22:35.219Z,35.77
2022-08-07T00:25:02.733Z,35.83
2022-08-07T00:27:51.637Z,35.98
2022-08-07T00:30:26.694Z,35.85
2022-08-07T00:32:54.673Z,35.85
2022-08-07T00:35:21.031Z,36.07
2022-08-07T00:37:49.534Z,35.77
2022-08-07T00:40:17.194Z,35.76
2022-08-07T00:43:03.531Z,35.86
2022-08-07T00:45:36.439Z,35.58
2022-08-07T00:48:18.456Z,35.57
2022-08-07T00:50:50.325Z,35.97
2022-08-07T00:53:17.320Z,36.07
2022-08-07T00:56:03.207Z,35.72
2022-08-07T00:58:30.180Z,35.86
2022-08-07T01:00:56.540Z,35.85
2022-08-07T01:03:54.764Z,35.81
2022-08-07T01:06:09.283Z,35.74
2022-08-07T01:08:35.654Z,35.67
2022-08-07T01:11:10.771Z,35.67
2022-08-07T01:13:56.046Z,35.62
2022-08-07T01:16:30.450Z,35.40
2022-08-07T01:18:57.148Z,35.49
2022-08-07T01:21:26.125Z,35.51
2022-08-07T01:23:53.858Z,35.79
2022-08-07T01:26:20.323Z,35.69
2022-08-07T01:28:48.360Z,35.51
2022-08-07T01:31:15.409Z,35.89
2022-08-07T01:33:56.355Z,35.39
2022-08-07T01:36:33.514Z,35.45
2022-08-07T01:39:09.421Z,35.54
2022-08-07T01:41:36.647Z,35.86
2022-08-07T01:44:04.767Z,35.48
2022-08-07T01:46:31.310Z,35.97
2022-08-07T01:48:57.918Z,35.65
2022-08-07T01:52:02.399Z,35.71
2022-08-07T01:54:32.563Z,35.79
2022-08-07T01:56:59.007Z,35.72
2022-08-07T01:59:31.101Z,35.89
2022-08-07T02:02:01.966Z,35.53
2022-08-07T02:04:30.722Z,35.96
2022-08-07T02:06:57.115Z,35.85
2022-08-07T02:09:52.279Z,35.71
2022-08-07T02:12:09.830Z,35.49
2022-08-07T02:14:40.727Z,35.82
2022-08-07T02:17:07.574Z,35.60
2022-08-07T02:20:06.853Z,35.84
2022-08-07T02:22:20.295Z,35.51
2022-08-07T02:24:46.803Z,35.74
2022-08-07T02:27:14.918Z,35.53
2022-08-07T02:29:48.648Z,35.69
2022-08-07T02:32:23.420Z,35.38
2022-08-07T02:34:53.400Z,35.93
2022-08-07T02:37:19.768Z,35.94
2022-08-07T02:40:02.382Z,35.42
2022-08-07T02:42:32.448Z,35.61
2022-08-07T02:44:58.793Z,35.67
2022-08-07T02:47:25.817Z,35.52
2022-08-07T02:49:59.103Z,35.83
2022-08-07T02:52:31.057Z,35.29
2022-08-07T02:54:58.793Z,35.31
2022-08-07T02:57:30.858Z,35.97
2022-08-07T03:00:01.196Z,35.41
2022-08-07T03:02:31.179Z,35.84
2022-08-07T03:04:58.786Z,35.74
2022-08-07T03:07:43.083Z,35.80
2022-08-07T03:10:11.490Z,35.61
2022-08-07T03:12:40.703Z,35.79
2022-08-07T03:15:07.491Z,35.54
2022-08-07T03:17:36.303Z,35.54
2022-08-07T03:20:19.436Z,35.85
2022-08-07T03:22:50.287Z,35.54
2022-08-07T03:25:16.844Z,35.72
2022-08-07T03:27:59.175Z,35.66
2022-08-07T03:30:33.902Z,35.78
2022-08-07T03:33:00.960Z,35.55
2022-08-07T03:35:27.425Z,35.69
2022-08-07T03:38:10.569Z,35.57
2022-08-07T03:40:39.793Z,35.80
2022-08-07T03:43:13.794Z,35.67
2022-08-07T03:45:43.528Z,36.02
2022-08-07T03:48:13.816Z,35.68
2022-08-07T03:50:40.166Z,36.03
2022-08-07T03:53:18.361Z,36.03
2022-08-07T03:56:03.921Z,35.73
2022-08-07T03:59:05.643Z,36.00
2022-08-07T04:01:16.957Z,35.46
2022-08-07T04:03:49.784Z,35.51
2022-08-07T04:06:37.364Z,35.57
2022-08-07T04:09:04.893Z,35.71
2022-08-07T04:12:26.964Z,35.79
2022-08-07T04:14:38.817Z,35.48
2022-08-07T04:17:04.358Z,35.62
2022-08-07T04:19:52.440Z,35.76
2022-08-07T04:22:22.936Z,35.99
2022-08-07T04:24:49.478Z,35.79
2022-08-07T04:27:25.304Z,35.93
2022-08-07T04:30:01.808Z,35.69
2022-08-07T04:32:33.907Z,36.02
2022-08-07T04:35:01.419Z,36.05
2022-08-07T04:37:30.386Z,35.83
2022-08-07T04:40:16.723Z,35.84
2022-08-07T04:42:46.041Z,36.20
2022-08-07T04:45:22.725Z,36.07
2022-08-07T04:48:05.060Z,35.72
2022-08-07T04:50:37.019Z,35.89
2022-08-07T04:53:03.386Z,36.11
2022-08-07T04:58:13.926Z,35.86
2022-08-07T04:58:34.830Z,36.13
2022-08-07T05:01:02.454Z,35.95
2022-08-07T05:04:00.969Z,35.99
2022-08-07T05:06:19.204Z,36.10
2022-08-07T05:09:00.574Z,36.05
2022-08-07T05:11:57.216Z,35.78
2022-08-07T05:14:53.755Z,35.90
2022-08-07T05:17:00.839Z,36.07
2022-08-07T05:19:44.208Z,35.92
2022-08-07T05:22:11.644Z,36.02
2022-08-07T05:24:40.246Z,36.19
2022-08-07T05:27:07.076Z,36.09
2022-08-07T05:29:51.177Z,36.07
2022-08-07T05:32:19.986Z,36.29
2022-08-07T05:34:46.330Z,36.01
2022-08-07T05:37:12.996Z,36.24
2022-08-07T05:40:06.394Z,35.80
2022-08-07T05:42:33.700Z,36.02
2022-08-07T05:45:04.400Z,36.41
2022-08-07T05:48:01.549Z,36.40
2022-08-07T05:50:27.662Z,36.34
2022-08-07T05:52:54.167Z,35.98
2022-08-07T05:55:21.606Z,36.19
2022-08-07T05:57:49.312Z,36.50
2022-08-07T06:00:17.716Z,36.21
2022-08-07T06:02:44.319Z,36.39
2022-08-07T06:05:15.682Z,36.34
2022-08-07T06:08:13.647Z,36.41
2022-08-07T06:10:28.787Z,36.28
2022-08-07T06:12:55.154Z,35.79
2022-08-07T06:15:21.506Z,36.01
2022-08-07T06:17:53.508Z,36.46
2022-08-07T06:20:31.689Z,36.43
2022-08-07T06:23:25.179Z,36.39
2022-08-07T06:25:54.484Z,36.32
2022-08-07T06:28:27.493Z,36.44
2022-08-07T06:30:54.618Z,36.30
2022-08-07T06:33:22.549Z,36.12
2022-08-07T06:36:12.454Z,36.23
2022-08-07T06:38:35.533Z,35.99
2022-08-07T06:41:02.223Z,36.00
2022-08-07T06:43:39.982Z,36.41
2022-08-07T06:46:12.649Z,36.14
2022-08-07T06:48:41.788Z,36.62
2022-08-07T06:51:10.685Z,36.42
2022-08-07T06:55:27.265Z,36.57
2022-08-07T06:56:28.041Z,36.69
2022-08-07T07:00:14.271Z,36.59
2022-08-07T07:01:43.847Z,36.71
2022-08-07T07:04:32.447Z,36.34
2022-08-07T07:07:01.172Z,36.74
2022-08-07T07:09:31.088Z,36.59
2022-08-07T07:12:08.960Z,36.68
2022-08-07T07:14:40.387Z,36.88
2022-08-07T07:17:06.933Z,36.91
2022-08-07T07:19:57.375Z,36.58
2022-08-07T07:22:36.031Z,36.54
2022-08-07T07:26:32.211Z,36.83
2022-08-07T07:27:58.461Z,36.69
2022-08-07T07:30:37.931Z,36.61
2022-08-07T07:33:05.139Z,36.82
2022-08-07T07:35:33.601Z,36.80
2022-08-07T07:38:10.226Z,36.42
2022-08-07T07:40:37.868Z,36.55
2022-08-07T07:43:15.494Z,36.56
2022-08-07T07:46:39.984Z,36.75
2022-08-07T07:48:35.812Z,36.79
2022-08-07T07:51:02.719Z,36.76
2022-08-07T07:53:34.818Z,36.53
2022-08-07T07:56:01.411Z,36.60
2022-08-07T07:58:27.969Z,36.54
2022-08-07T08:00:54.394Z,36.49
2022-08-07T08:04:10.736Z,36.47
2022-08-07T08:06:07.963Z,36.57
2022-08-07T08:08:41.980Z,36.55
2022-08-07T08:11:13.634Z,36.66
2022-08-07T08:13:54.728Z,36.49
2022-08-07T08:16:25.158Z,36.70
2022-08-07T08:18:51.752Z,36.61
2022-08-07T08:21:18.106Z,36.43
2022-08-07T08:23:45.590Z,36.31
2022-08-07T08:26:12.565Z,36.45
2022-08-07T08:28:43.379Z,36.47
2022-08-07T08:31:14.819Z,36.72
2022-08-07T08:33:42.458Z,36.68
2022-08-07T08:36:15.570Z,36.65
2022-08-07T08:38:42.151Z,36.59
2022-08-07T08:41:11.908Z,36.65
2022-08-07T08:43:42.031Z,36.82
2022-08-07T08:46:09.706Z,36.48
2022-08-07T08:48:38.218Z,36.93
2022-08-07T08:51:14.491Z,36.89
2022-08-07T08:53:49.566Z,36.67
2022-08-07T08:56:17.317Z,36.57
2022-08-07T08:58:43.828Z,36.53
2022-08-07T09:01:14.533Z,36.54
2022-08-07T09:03:49.778Z,36.84
2022-08-07T09:06:18.925Z,36.74
2022-08-07T09:08:46.743Z,36.70
2022-08-07T09:11:14.018Z,36.40
2022-08-07T09:13:50.916Z,36.50
2022-08-07T09:16:25.686Z,36.31
2022-08-07T09:18:58.597Z,36.50
2022-08-07T09:21:34.185Z,36.31
2022-08-07T09:24:33.529Z,36.57
2022-08-07T09:26:57.983Z,36.93
2022-08-07T09:30:03.417Z,36.55
2022-08-07T09:32:18.889Z,36.37
2022-08-07T09:34:54.059Z,36.29
2022-08-07T09:37:20.702Z,36.82
2022-08-07T09:40:07.054Z,36.79
2022-08-07T09:42:35.168Z,36.53
2022-08-07T09:47:24.179Z,36.35
2022-08-07T09:47:57.734Z,36.38
2022-08-07T09:50:30.100Z,36.42
2022-08-07T09:52:56.619Z,36.50
2022-08-07T09:55:29.395Z,36.71
2022-08-07T09:58:03.403Z,36.70
2022-08-07T10:00:30.054Z,36.31
2022-08-07T10:02:58.503Z,36.47
2022-08-07T10:05:59.176Z,36.45
2022-08-07T10:08:21.281Z,36.39
2022-08-07T10:14:01.315Z,36.48
2022-08-07T10:16:23.395Z,36.68
2022-08-07T10:18:50.801Z,36.55
2022-08-07T10:21:50.323Z,36.48
2022-08-07T10:24:08.630Z,36.72
2022-08-07T10:26:36.332Z,36.56
2022-08-07T10:29:02.724Z,36.63
2022-08-07T10:31:31.447Z,36.37
2022-08-07T10:34:15.335Z,36.53
2022-08-07T10:36:45.585Z,36.44
2022-08-07T10:39:13.952Z,36.64
2022-08-07T10:41:47.305Z,36.06
2022-08-07T10:44:28.714Z,36.44
2022-08-07T10:47:05.778Z,36.43
2022-08-07T10:49:49.815Z,36.23
2022-08-07T10:52:17.663Z,36.46
2022-08-07T10:54:55.152Z,36.37
2022-08-07T10:57:34.334Z,36.21
2022-08-07T11:00:01.233Z,36.26
2022-08-07T11:02:34.057Z,36.52
2022-08-07T11:05:07.276Z,36.62
2022-08-07T11:07:58.441Z,36.45
2022-08-07T11:10:22.979Z,36.68
2022-08-07T11:13:01.572Z,36.58
2022-08-07T11:15:31.627Z,36.27
2022-08-07T11:18:03.359Z,36.28
2022-08-07T11:20:30.126Z,36.54
2022-08-07T11:22:56.946Z,36.55
2022-08-07T11:25:23.377Z,36.85
2022-08-07T11:28:03.138Z,36.54
2022-08-07T11:30:41.412Z,36.85
2022-08-07T11:33:14.249Z,36.75
2022-08-07T11:35:59.831Z,36.90
2022-08-07T11:38:28.357Z,36.52
2022-08-07T11:40:55.651Z,36.82
2022-08-07T11:43:41.221Z,36.85
2022-08-07T11:46:08.854Z,36.69
2022-08-07T11:48:35.694Z,36.96
2022-08-07T11:51:03.944Z,36.53
2022-08-07T11:53:35.611Z,36.85
2022-08-07T11:56:13.983Z,36.69
2022-08-07T11:58:49.756Z,36.86
2022-08-07T12:01:20.230Z,36.65
2022-08-07T12:03:48.707Z,36.58
2022-08-07T12:06:39.087Z,36.40
2022-08-07T12:09:01.445Z,36.39
2022-08-07T12:11:32.595Z,36.12
2022-08-07T12:13:59.057Z,36.57
2022-08-07T12:16:28.835Z,36.40
2022-08-07T12:18:57.265Z,36.47
2022-08-07T12:22:37.310Z,36.63
2022-08-07T12:24:38.030Z,36.41
2022-08-07T12:26:56.289Z,36.36
2022-08-07T12:29:38.155Z,36.53
2022-08-07T12:32:12.080Z,36.73
2022-08-07T12:34:39.128Z,36.82
2022-08-07T12:37:08.214Z,36.71
2022-08-07T12:39:50.714Z,36.67
2022-08-07T12:42:17.771Z,36.47
2022-08-07T12:44:53.762Z,36.38
2022-08-07T12:47:21.850Z,36.30
2022-08-07T12:50:04.608Z,36.06
2022-08-07T12:52:34.099Z,36.22
2022-08-07T12:55:05.695Z,36.14
2022-08-07T12:58:01.238Z,36.17
2022-08-07T13:00:32.480Z,36.23
2022-08-07T13:03:01.111Z,36.24
2022-08-07T13:06:03.627Z,36.30
2022-08-07T13:08:19.860Z,36.02
2022-08-07T13:10:51.814Z,36.48
2022-08-07T13:13:48.212Z,36.44
2022-08-07T13:16:05.069Z,36.53
2022-08-07T13:18:31.425Z,36.45
2022-08-07T13:21:00.819Z,36.03
2022-08-07T13:24:01.469Z,36.19
2022-08-07T13:26:15.947Z,36.52
2022-08-07T13:28:44.698Z,36.31
2022-08-07T13:31:13.057Z,36.04
2022-08-07T13:34:30.667Z,36.26
2022-08-07T13:36:26.379Z,36.46
2022-08-07T13:38:54.471Z,36.33
2022-08-07T13:41:21.064Z,36.13
2022-08-07T13:43:52.763Z,36.22
2022-08-07T13:46:28.897Z,36.25
2022-08-07T13:48:59.423Z,36.22
2022-08-07T13:51:28.210Z,36.05
2022-08-07T13:54:16.603Z,36.20
2022-08-07T13:56:51.624Z,36.14
2022-08-07T13:59:22.346Z,36.36
2022-08-07T14:01:51.113Z,36.10
2022-08-07T14:04:35.565Z,35.99
2022-08-07T14:07:03.201Z,36.31
2022-08-07T14:10:03.043Z,36.14
2022-08-07T14:12:16.581Z,36.16
2022-08-07T14:14:53.837Z,36.33
2022-08-07T14:18:12.711Z,36.05
2022-08-07T14:20:43.297Z,36.28
2022-08-07T14:22:52.882Z,36.49
2022-08-07T14:25:19.250Z,36.02
2022-08-07T14:28:11.203Z,36.23
2022-08-07T14:30:33.436Z,36.16
2022-08-07T14:32:59.795Z,35.92
2022-08-07T14:35:45.716Z,36.15
2022-08-07T14:38:24.777Z,36.33
2022-08-07T14:40:56.720Z,35.97
2022-08-07T14:43:58.116Z,36.08
2022-08-07T14:46:09.697Z,35.92
2022-08-07T14:48:36.098Z,36.13
2022-08-07T14:51:02.765Z,36.41
2022-08-07T14:54:03.757Z,36.10
2022-08-07T14:56:29.898Z,35.90
2022-08-07T14:58:56.900Z,36.07
2022-08-07T15:01:23.302Z,36.33
2022-08-07T15:03:52.438Z,36.31
2022-08-07T15:06:19.571Z,36.07
2022-08-07T15:08:49.967Z,36.32
2022-08-07T15:14:09.991Z,36.31
2022-08-07T15:16:37.091Z,36.11
2022-08-07T15:19:03.467Z,36.15
2022-08-07T15:21:58.474Z,36.04
2022-08-07T15:27:06.209Z,36.10
2022-08-07T15:35:05.266Z,36.34
2022-08-07T15:38:04.476Z,36.05
2022-08-07T15:40:33.888Z,36.39
2022-08-07T15:43:00.424Z,36.05
2022-08-07T15:45:55.761Z,36.17
2022-08-07T15:48:14.177Z,36.27
2022-08-07T15:51:08.380Z,36.24
2022-08-07T15:53:52.271Z,36.14
2022-08-07T15:56:19.414Z,36.39
2022-08-07T15:58:45.765Z,36.50
2022-08-07T16:01:20.370Z,36.13
2022-08-07T16:03:55.877Z,36.36
2022-08-07T16:06:24.963Z,36.03
2022-08-07T16:08:52.923Z,36.12
2022-08-07T16:11:28.743Z,36.22
2022-08-07T16:13:58.551Z,36.05
2022-08-07T16:16:47.735Z,36.40
2022-08-07T16:19:13.016Z,36.29
2022-08-07T16:22:03.364Z,36.22
2022-08-07T16:24:34.785Z,36.10
2022-08-07T16:27:01.749Z,36.10
2022-08-07T16:30:10.983Z,36.16
2022-08-07T16:32:34.797Z,35.80
2022-08-07T16:35:00.754Z,35.71
2022-08-07T16:38:06.206Z,35.88
2022-08-07T16:40:23.006Z,35.95
2022-08-07T16:42:55.354Z,35.85
2022-08-07T16:48:09.027Z,36.12
2022-08-07T16:50:52.673Z,36.24
2022-08-07T16:54:02.946Z,35.92
2022-08-07T16:56:10.654Z,36.11
2022-08-07T16:59:02.235Z,36.20
2022-08-07T17:01:23.362Z,36.08
2022-08-07T17:03:59.610Z,36.06
2022-08-07T17:06:31.328Z,36.23
2022-08-07T17:09:10.552Z,35.81
2022-08-07T17:12:04.936Z,35.80
2022-08-07T17:14:26.477Z,36.06
2022-08-07T17:16:55.539Z,36.16
2022-08-07T17:20:00.953Z,36.03
2022-08-07T17:22:10.639Z,36.16
2022-08-07T17:24:37.066Z,35.99
2022-08-07T17:27:03.411Z,36.12
2022-08-07T17:30:14.989Z,35.99
2022-08-07T17:32:30.380Z,35.63
2022-08-07T17:35:50.945Z,35.92
2022-08-07T17:38:09.412Z,35.79
2022-08-07T17:40:30.807Z,35.90
2022-08-07T17:42:59.180Z,35.99
2022-08-07T17:45:26.293Z,35.81
2022-08-07T17:47:54.352Z,35.64
2022-08-07T17:50:20.842Z,35.93
2022-08-07T17:52:47.200Z,35.85
2022-08-07T17:55:14.367Z,35.64
2022-08-07T17:58:01.890Z,35.74
2022-08-07T18:00:34.175Z,35.78
2022-08-07T18:03:01.143Z,35.92
2022-08-07T18:06:03.165Z,35.89
2022-08-07T18:08:24.271Z,35.68
2022-08-07T18:12:08.214Z,35.73
2022-08-07T18:13:40.850Z,35.93
2022-08-07T18:16:07.847Z,35.78
2022-08-07T18:21:01.511Z,35.80
2022-08-07T18:21:27.496Z,35.74
2022-08-07T18:24:07.482Z,36.02
2022-08-07T18:26:35.184Z,35.72
2022-08-07T18:29:02.226Z,35.95
2022-08-07T18:31:33.716Z,35.83
2022-08-07T18:34:06.157Z,36.16
2022-08-07T18:36:53.762Z,35.90
2022-08-07T18:40:06.961Z,36.08
2022-08-07T18:42:06.876Z,36.08
2022-08-07T18:45:39.599Z,35.94
2022-08-07T18:47:25.571Z,35.69
2022-08-07T18:50:39.550Z,35.71
2022-08-07T18:53:02.922Z,35.85
2022-08-07T18:55:42.280Z,35.69
2022-08-07T18:58:15.138Z,35.43
2022-08-07T19:00:41.667Z,35.85
2022-08-07T19:03:20.751Z,35.61
2022-08-07T19:06:05.041Z,35.56
2022-08-07T19:08:31.493Z,35.54
2022-08-07T19:10:58.283Z,35.70
2022-08-07T19:13:24.623Z,35.42
2022-08-07T19:16:04.906Z,35.51
2022-08-07T19:18:37.330Z,35.67
2022-08-07T19:21:13.946Z,35.10
2022-08-07T19:24:00.136Z,35.39
2022-08-07T19:26:28.897Z,35.52
2022-08-07T19:30:55.224Z,35.58
2022-08-07T19:32:10.930Z,35.68
2022-08-07T19:34:33.830Z,35.82
2022-08-07T19:37:10.211Z,35.34
2022-08-07T19:39:57.331Z,35.59
2022-08-07T19:42:29.509Z,35.53
2022-08-07T19:44:56.998Z,35.94
2022-08-07T19:47:27.398Z,35.59
2022-08-07T19:49:58.191Z,35.63
2022-08-07T19:52:29.792Z,35.82
2022-08-07T19:54:57.261Z,35.37
2022-08-07T19:58:02.713Z,35.98
2022-08-07T20:00:10.553Z,35.64
2022-08-07T20:02:38.960Z,35.76
2022-08-07T20:05:07.949Z,35.79
2022-08-07T20:07:47.219Z,36.15
2022-08-07T20:10:37.083Z,36.02
2022-08-07T20:13:00.929Z,36.11
2022-08-07T20:15:32.946Z,35.91
2022-08-07T20:18:04.463Z,36.34
2022-08-07T20:20:30.886Z,36.19
2022-08-07T20:22:57.252Z,36.00
2022-08-07T20:25:23.608Z,36.27
2022-08-07T20:27:54.077Z,35.98
2022-08-07T20:30:25.091Z,36.01
2022-08-07T20:32:51.817Z,36.14
2022-08-07T20:35:22.003Z,36.08
2022-08-07T20:37:57.725Z,36.05
2022-08-07T20:40:32.229Z,36.06
2022-08-07T20:43:00.904Z,36.34
2022-08-07T20:45:33.538Z,35.93
2022-08-07T20:48:28.727Z,35.89
2022-08-07T20:50:56.787Z,35.98
2022-08-07T20:54:02.212Z,36.05
2022-08-07T20:56:10.471Z,35.98
2022-08-07T20:58:36.844Z,36.06
2022-08-07T21:01:04.817Z,36.08
2022-08-07T21:03:31.463Z,36.05
2022-08-07T21:06:01.298Z,36.19
2022-08-07T21:08:32.296Z,36.05
2022-08-07T21:11:04.732Z,35.91
2022-08-07T21:13:43.756Z,36.34
2022-08-07T21:16:17.447Z,35.92
2022-08-07T21:18:46.348Z,36.13
2022-08-07T21:21:16.990Z,36.10
2022-08-07T21:23:50.431Z,36.25
2022-08-07T21:26:17.182Z,36.06
2022-08-07T21:28:48.112Z,35.86
2022-08-07T21:31:16.871Z,36.24
2022-08-07T21:33:57.922Z,36.00
2022-08-07T21:36:31.158Z,36.25
2022-08-07T21:38:58.923Z,35.84
2022-08-07T21:41:26.393Z,36.12
2022-08-07T21:43:55.919Z,36.04
2022-08-07T21:46:25.014Z,36.09
2022-08-07T21:48:58.295Z,35.97
2022-08-07T21:51:25.466Z,35.60
2022-08-07T21:53:53.011Z,35.87
2022-08-07T21:56:36.001Z,35.51
2022-08-07T21:59:03.159Z,35.52
2022-08-07T22:02:10.345Z,35.55
2022-08-07T22:04:17.636Z,35.58
2022-08-07T22:06:46.630Z,35.93
2022-08-07T22:09:16.343Z,35.84
2022-08-07T22:12:05.509Z,35.79
2022-08-07T22:14:34.737Z,35.49
2022-08-07T22:17:02.447Z,35.70
2022-08-07T22:19:30.565Z,35.85
2022-08-07T22:22:02.799Z,35.63
2022-08-07T22:24:37.043Z,35.78
2022-08-07T22:27:03.450Z,35.42
2022-08-07T22:29:33.778Z,35.80
2022-08-07T22:32:06.384Z,35.82
2022-08-07T22:34:33.212Z,36.03
2022-08-07T22:37:02.377Z,35.73
2022-08-07T22:39:29.426Z,35.58
2022-08-07T22:42:03.992Z,35.78
2022-08-07T22:44:58.994Z,35.53
2022-08-07T22:47:25.874Z,35.69
2022-08-07T22:49:54.831Z,35.29
2022-08-07T22:52:37.065Z,35.08
2022-08-07T22:55:17.768Z,35.50
2022-08-07T22:57:49.809Z,35.48
2022-08-07T23:00:16.314Z,35.71
2022-08-07T23:02:43.083Z,35.43
2022-08-07T23:06:08.566Z,35.98
2022-08-07T23:07:57.163Z,35.42
2022-08-07T23:10:36.450Z,35.48
2022-08-07T23:13:06.244Z,35.64
2022-08-07T23:16:06.687Z,35.58
2022-08-07T23:18:19.321Z,35.28
2022-08-07T23:20:53.366Z,35.35
2022-08-07T23:24:05.966Z,35.22
2022-08-07T23:26:06.411Z,35.50
2022-08-07T23:28:32.771Z,35.63
2022-08-07T23:31:05.822Z,35.66
2022-08-07T23:34:36.192Z,35.55
2022-08-07T23:36:28.912Z,35.35
2022-08-07T23:38:56.262Z,35.42
2022-08-07T23:41:22.616Z,35.48
2022-08-07T23:43:59.518Z,35.63
2022-08-07T23:46:27.190Z,35.25
2022-08-07T23:48:53.775Z,35.33
2022-08-07T23:52:59.976Z,35.32
2022-08-07T23:54:19.471Z,35.50
2022-08-07T23:56:54.087Z,35.43
